SBI160 UUDD-UWWW
Flight info
| Callsign | SBI160 |
|---|---|
| Flight time | 1h 19m |
| Altitude | 39000 |
| Route | TOGMO4Q TOGMO M56 ABAGI T794 RUBEK RUBEK8P |
| Aircraft | A320/M-SDE3FGHIRWY/LB1 |
Departure
| Time | 2026-05-07 15:13 |
|---|---|
| Airport | Domodedovo International Airport (UUDD) |
Arrival
| Time | 2026-05-07 16:32 |
|---|---|
| Airport | Kurumoch International Airport (UWWW) |
| Time | Latitude | Longitude | Altitude | Speed | Heading |
|---|---|---|---|---|---|
| 2026-05-07 14:36 | 55.41306 | 37.90311 | 572 ft | 0 kts | 49° |
| 2026-05-07 14:59 | 55.41292 | 37.90286 | 577 ft | 0 kts | 34° |
| 2026-05-07 15:00 | 55.41289 | 37.90282 | 572 ft | 3 kts | 36° |
| 2026-05-07 15:00 | 55.41276 | 37.90259 | 575 ft | 3 kts | 72° |
| 2026-05-07 15:01 | 55.41274 | 37.90229 | 575 ft | 2 kts | 108° |
| 2026-05-07 15:01 | 55.41282 | 37.90202 | 576 ft | 2 kts | 142° |
| 2026-05-07 15:01 | 55.41285 | 37.90198 | 575 ft | 0 kts | 152° |
| 2026-05-07 15:04 | 55.41283 | 37.90200 | 575 ft | 2 kts | 147° |
| 2026-05-07 15:04 | 55.41231 | 37.90264 | 570 ft | 14 kts | 144° |
| 2026-05-07 15:04 | 55.41159 | 37.90287 | 571 ft | 11 kts | 218° |
| 2026-05-07 15:04 | 55.41113 | 37.90174 | 571 ft | 12 kts | 235° |
| 2026-05-07 15:05 | 55.41060 | 37.90040 | 568 ft | 15 kts | 235° |
| 2026-05-07 15:05 | 55.41001 | 37.89888 | 571 ft | 16 kts | 235° |
| 2026-05-07 15:05 | 55.40938 | 37.89722 | 570 ft | 17 kts | 236° |
| 2026-05-07 15:05 | 55.40875 | 37.89567 | 570 ft | 10 kts | 231° |
| 2026-05-07 15:06 | 55.40823 | 37.89470 | 574 ft | 13 kts | 234° |
| 2026-05-07 15:06 | 55.40765 | 37.89319 | 570 ft | 13 kts | 235° |
| 2026-05-07 15:06 | 55.40682 | 37.89295 | 569 ft | 14 kts | 149° |
| 2026-05-07 15:06 | 55.40579 | 37.89417 | 569 ft | 20 kts | 146° |
| 2026-05-07 15:07 | 55.40457 | 37.89563 | 563 ft | 22 kts | 145° |
| 2026-05-07 15:07 | 55.40326 | 37.89720 | 560 ft | 24 kts | 146° |
| 2026-05-07 15:07 | 55.40194 | 37.89878 | 561 ft | 18 kts | 145° |
| 2026-05-07 15:07 | 55.40091 | 37.90001 | 555 ft | 18 kts | 146° |
| 2026-05-07 15:08 | 55.39985 | 37.90130 | 558 ft | 21 kts | 146° |
| 2026-05-07 15:08 | 55.39844 | 37.90299 | 549 ft | 24 kts | 146° |
| 2026-05-07 15:08 | 55.39741 | 37.90424 | 547 ft | 15 kts | 146° |
| 2026-05-07 15:08 | 55.39662 | 37.90520 | 545 ft | 11 kts | 145° |
| 2026-05-07 15:09 | 55.39601 | 37.90523 | 544 ft | 4 kts | 212° |
| 2026-05-07 15:09 | 55.39591 | 37.90506 | 544 ft | 0 kts | 228° |
| 2026-05-07 15:10 | 55.39591 | 37.90505 | 544 ft | 1 kts | 229° |
| 2026-05-07 15:10 | 55.39569 | 37.90451 | 546 ft | 7 kts | 236° |
| 2026-05-07 15:10 | 55.39548 | 37.90365 | 548 ft | 8 kts | 262° |
| 2026-05-07 15:10 | 55.39563 | 37.90282 | 543 ft | 6 kts | 309° |
| 2026-05-07 15:11 | 55.39575 | 37.90263 | 547 ft | 0 kts | 321° |
| 2026-05-07 15:11 | 55.39576 | 37.90262 | 547 ft | 0 kts | 324° |
| 2026-05-07 15:12 | 55.39590 | 37.90244 | 544 ft | 10 kts | 324° |
| 2026-05-07 15:12 | 55.39803 | 37.89991 | 548 ft | 73 kts | 326° |
| 2026-05-07 15:12 | 55.40401 | 37.89267 | 565 ft | 134 kts | 326° |
| 2026-05-07 15:12 | 55.41286 | 37.88204 | 790 ft | 162 kts | 326° |
| 2026-05-07 15:13 | 55.42224 | 37.87082 | 1538 ft | 162 kts | 320° |
| 2026-05-07 15:13 | 55.43038 | 37.85692 | 2171 ft | 170 kts | 309° |
| 2026-05-07 15:13 | 55.43849 | 37.84019 | 2579 ft | 189 kts | 307° |
| 2026-05-07 15:13 | 55.44745 | 37.82158 | 3032 ft | 206 kts | 307° |
| 2026-05-07 15:14 | 55.45677 | 37.80225 | 3785 ft | 210 kts | 308° |
| 2026-05-07 15:14 | 55.46380 | 37.78072 | 3968 ft | 204 kts | 278° |
| 2026-05-07 15:14 | 55.46098 | 37.75605 | 4133 ft | 222 kts | 243° |
| 2026-05-07 15:14 | 55.45229 | 37.73242 | 4888 ft | 234 kts | 236° |
| 2026-05-07 15:15 | 55.44319 | 37.71081 | 5637 ft | 239 kts | 235° |
| 2026-05-07 15:15 | 55.43280 | 37.68793 | 5911 ft | 238 kts | 226° |
| 2026-05-07 15:15 | 55.41790 | 37.67524 | 5993 ft | 247 kts | 190° |
| 2026-05-07 15:15 | 55.40028 | 37.68168 | 6217 ft | 279 kts | 157° |
| 2026-05-07 15:16 | 55.38318 | 37.69916 | 6812 ft | 289 kts | 152° |
| 2026-05-07 15:16 | 55.36655 | 37.71896 | 6969 ft | 288 kts | 149° |
| 2026-05-07 15:16 | 55.35045 | 37.73928 | 7006 ft | 288 kts | 148° |
| 2026-05-07 15:16 | 55.33427 | 37.75989 | 7011 ft | 288 kts | 148° |
| 2026-05-07 15:17 | 55.31779 | 37.78075 | 7601 ft | 293 kts | 148° |
| 2026-05-07 15:17 | 55.30117 | 37.80160 | 7922 ft | 292 kts | 149° |
| 2026-05-07 15:17 | 55.28463 | 37.82209 | 7999 ft | 289 kts | 150° |
| 2026-05-07 15:17 | 55.26706 | 37.83829 | 8013 ft | 283 kts | 165° |
| 2026-05-07 15:18 | 55.24783 | 37.84725 | 8699 ft | 285 kts | 171° |
| 2026-05-07 15:18 | 55.22867 | 37.85566 | 9788 ft | 284 kts | 171° |
| 2026-05-07 15:18 | 55.20948 | 37.86423 | 10675 ft | 286 kts | 171° |
| 2026-05-07 15:18 | 55.19010 | 37.87290 | 11504 ft | 289 kts | 171° |
| 2026-05-07 15:19 | 55.17046 | 37.88165 | 12308 ft | 293 kts | 170° |
| 2026-05-07 15:19 | 55.15057 | 37.89049 | 13122 ft | 297 kts | 170° |
| 2026-05-07 15:19 | 55.13045 | 37.89943 | 13909 ft | 300 kts | 170° |
| 2026-05-07 15:19 | 55.11000 | 37.90739 | 14596 ft | 302 kts | 177° |
| 2026-05-07 15:20 | 55.08906 | 37.90787 | 15275 ft | 301 kts | 190° |
| 2026-05-07 15:20 | 55.06812 | 37.90321 | 15960 ft | 305 kts | 191° |
| 2026-05-07 15:20 | 55.04712 | 37.89853 | 16622 ft | 309 kts | 190° |
| 2026-05-07 15:20 | 55.02532 | 37.89870 | 17282 ft | 320 kts | 174° |
| 2026-05-07 15:21 | 55.00381 | 37.91067 | 17930 ft | 331 kts | 156° |
| 2026-05-07 15:21 | 54.98447 | 37.93466 | 18157 ft | 356 kts | 136° |
| 2026-05-07 15:21 | 54.96945 | 37.97037 | 18536 ft | 370 kts | 125° |
| 2026-05-07 15:21 | 54.95545 | 38.00771 | 18832 ft | 374 kts | 126° |
| 2026-05-07 15:22 | 54.94104 | 38.04542 | 18894 ft | 374 kts | 126° |
| 2026-05-07 15:22 | 54.92647 | 38.08298 | 18895 ft | 374 kts | 127° |
| 2026-05-07 15:22 | 54.91184 | 38.12036 | 18899 ft | 373 kts | 127° |
| 2026-05-07 15:22 | 54.89823 | 38.15882 | 18895 ft | 375 kts | 118° |
| 2026-05-07 15:23 | 54.88806 | 38.20069 | 18896 ft | 377 kts | 113° |
| 2026-05-07 15:23 | 54.87844 | 38.24329 | 19137 ft | 380 kts | 113° |
| 2026-05-07 15:23 | 54.86887 | 38.28566 | 19765 ft | 382 kts | 113° |
| 2026-05-07 15:23 | 54.85912 | 38.32874 | 20373 ft | 384 kts | 113° |
| 2026-05-07 15:24 | 54.84874 | 38.37162 | 20966 ft | 387 kts | 118° |
| 2026-05-07 15:24 | 54.83579 | 38.41264 | 21549 ft | 389 kts | 121° |
| 2026-05-07 15:24 | 54.82254 | 38.45379 | 22138 ft | 392 kts | 121° |
| 2026-05-07 15:24 | 54.80913 | 38.49515 | 22712 ft | 395 kts | 121° |
| 2026-05-07 15:25 | 54.79556 | 38.53685 | 23295 ft | 398 kts | 121° |
| 2026-05-07 15:25 | 54.78186 | 38.57877 | 23804 ft | 401 kts | 122° |
| 2026-05-07 15:25 | 54.76567 | 38.61824 | 24287 ft | 402 kts | 133° |
| 2026-05-07 15:25 | 54.74565 | 38.65217 | 24624 ft | 408 kts | 143° |
| 2026-05-07 15:26 | 54.72193 | 38.68004 | 24745 ft | 418 kts | 151° |
| 2026-05-07 15:26 | 54.69653 | 38.70619 | 24867 ft | 430 kts | 151° |
| 2026-05-07 15:26 | 54.67060 | 38.73303 | 25074 ft | 437 kts | 151° |
| 2026-05-07 15:26 | 54.64440 | 38.76026 | 25405 ft | 441 kts | 150° |
| 2026-05-07 15:27 | 54.61806 | 38.78767 | 25774 ft | 444 kts | 150° |
| 2026-05-07 15:27 | 54.59156 | 38.81526 | 26141 ft | 446 kts | 150° |
| 2026-05-07 15:27 | 54.56521 | 38.84266 | 26507 ft | 449 kts | 150° |
| 2026-05-07 15:27 | 54.53834 | 38.87057 | 26857 ft | 451 kts | 150° |
| 2026-05-07 15:28 | 54.51136 | 38.89850 | 27204 ft | 454 kts | 150° |
| 2026-05-07 15:28 | 54.48412 | 38.92664 | 27547 ft | 456 kts | 150° |
| 2026-05-07 15:28 | 54.45681 | 38.95478 | 27884 ft | 458 kts | 150° |
| 2026-05-07 15:28 | 54.42988 | 38.98437 | 28200 ft | 461 kts | 144° |
| 2026-05-07 15:29 | 54.40552 | 39.02055 | 28507 ft | 464 kts | 134° |
| 2026-05-07 15:29 | 54.38480 | 39.06305 | 28814 ft | 466 kts | 125° |
| 2026-05-07 15:29 | 54.36821 | 39.11096 | 29111 ft | 468 kts | 115° |
| 2026-05-07 15:29 | 54.35545 | 39.16242 | 29401 ft | 470 kts | 111° |
| 2026-05-07 15:30 | 54.34303 | 39.21444 | 29672 ft | 472 kts | 112° |
| 2026-05-07 15:30 | 54.33056 | 39.26641 | 29939 ft | 473 kts | 112° |
| 2026-05-07 15:30 | 54.31795 | 39.31862 | 30196 ft | 473 kts | 112° |
| 2026-05-07 15:30 | 54.30530 | 39.37060 | 30502 ft | 472 kts | 112° |
| 2026-05-07 15:31 | 54.29278 | 39.42198 | 30802 ft | 471 kts | 112° |
| 2026-05-07 15:31 | 54.28019 | 39.47373 | 31104 ft | 471 kts | 112° |
| 2026-05-07 15:31 | 54.26758 | 39.52534 | 31414 ft | 470 kts | 112° |
| 2026-05-07 15:31 | 54.25492 | 39.57699 | 31720 ft | 469 kts | 112° |
| 2026-05-07 15:32 | 54.24229 | 39.62841 | 32024 ft | 468 kts | 112° |
| 2026-05-07 15:32 | 54.22967 | 39.67972 | 32330 ft | 468 kts | 112° |
| 2026-05-07 15:32 | 54.21707 | 39.73089 | 32639 ft | 467 kts | 112° |
| 2026-05-07 15:32 | 54.20445 | 39.78195 | 32939 ft | 466 kts | 112° |
| 2026-05-07 15:33 | 54.19180 | 39.83296 | 33254 ft | 465 kts | 112° |
| 2026-05-07 15:33 | 54.17915 | 39.88376 | 33568 ft | 465 kts | 113° |
| 2026-05-07 15:33 | 54.16648 | 39.93446 | 33889 ft | 464 kts | 112° |
| 2026-05-07 15:33 | 54.15383 | 39.98507 | 34157 ft | 463 kts | 113° |
| 2026-05-07 15:34 | 54.14115 | 40.03564 | 34418 ft | 463 kts | 113° |
| 2026-05-07 15:34 | 54.12846 | 40.08617 | 34679 ft | 463 kts | 113° |
| 2026-05-07 15:34 | 54.11645 | 40.13706 | 34930 ft | 462 kts | 108° |
| 2026-05-07 15:34 | 54.10741 | 40.18890 | 35161 ft | 462 kts | 106° |
| 2026-05-07 15:35 | 54.09838 | 40.24151 | 35391 ft | 462 kts | 106° |
| 2026-05-07 15:35 | 54.08932 | 40.29388 | 35618 ft | 462 kts | 106° |
| 2026-05-07 15:35 | 54.08017 | 40.34642 | 35841 ft | 462 kts | 107° |
| 2026-05-07 15:35 | 54.07102 | 40.39882 | 36061 ft | 461 kts | 107° |
| 2026-05-07 15:36 | 54.06186 | 40.45115 | 36273 ft | 461 kts | 107° |
| 2026-05-07 15:36 | 54.05267 | 40.50351 | 36482 ft | 461 kts | 107° |
| 2026-05-07 15:36 | 54.04349 | 40.55580 | 36686 ft | 461 kts | 107° |
| 2026-05-07 15:36 | 54.03426 | 40.60813 | 36884 ft | 461 kts | 107° |
| 2026-05-07 15:37 | 54.02499 | 40.66034 | 37085 ft | 461 kts | 107° |
| 2026-05-07 15:37 | 54.01571 | 40.71250 | 37276 ft | 461 kts | 107° |
| 2026-05-07 15:37 | 54.00642 | 40.76465 | 37461 ft | 461 kts | 107° |
| 2026-05-07 15:37 | 53.99712 | 40.81680 | 37652 ft | 460 kts | 107° |
| 2026-05-07 15:38 | 53.98783 | 40.86877 | 37837 ft | 460 kts | 107° |
| 2026-05-07 15:38 | 53.97849 | 40.92081 | 38021 ft | 460 kts | 107° |
| 2026-05-07 15:38 | 53.96925 | 40.97211 | 38205 ft | 460 kts | 107° |
| 2026-05-07 15:38 | 53.95987 | 41.02404 | 38365 ft | 460 kts | 107° |
| 2026-05-07 15:39 | 53.95064 | 41.07605 | 38539 ft | 460 kts | 107° |
| 2026-05-07 15:39 | 53.94187 | 41.12824 | 38679 ft | 459 kts | 106° |
| 2026-05-07 15:39 | 53.93342 | 41.18059 | 38819 ft | 459 kts | 105° |
| 2026-05-07 15:39 | 53.92510 | 41.23298 | 38908 ft | 460 kts | 105° |
| 2026-05-07 15:40 | 53.91114 | 41.32016 | 38929 ft | 460 kts | 106° |
| 2026-05-07 15:40 | 53.89387 | 41.42462 | 38929 ft | 460 kts | 106° |
| 2026-05-07 15:41 | 53.87631 | 41.52892 | 38919 ft | 460 kts | 106° |
| 2026-05-07 15:41 | 53.85879 | 41.63315 | 38920 ft | 460 kts | 106° |
| 2026-05-07 15:42 | 53.84123 | 41.73727 | 38921 ft | 460 kts | 106° |
| 2026-05-07 15:42 | 53.82362 | 41.84072 | 38928 ft | 460 kts | 107° |
| 2026-05-07 15:43 | 53.80572 | 41.94470 | 38935 ft | 461 kts | 107° |
| 2026-05-07 15:43 | 53.78768 | 42.04876 | 38938 ft | 461 kts | 107° |
| 2026-05-07 15:44 | 53.76965 | 42.15268 | 38942 ft | 460 kts | 107° |
| 2026-05-07 15:44 | 53.75151 | 42.25645 | 38944 ft | 460 kts | 107° |
| 2026-05-07 15:45 | 53.73329 | 42.36008 | 38944 ft | 460 kts | 107° |
| 2026-05-07 15:45 | 53.71495 | 42.46368 | 38939 ft | 460 kts | 107° |
| 2026-05-07 15:46 | 53.68724 | 42.61899 | 38942 ft | 460 kts | 105° |
| 2026-05-07 15:47 | 53.67964 | 42.72566 | 38936 ft | 460 kts | 87° |
| 2026-05-07 15:47 | 53.68486 | 42.83251 | 38933 ft | 460 kts | 85° |
| 2026-05-07 15:48 | 53.69000 | 42.93998 | 38931 ft | 460 kts | 85° |
| 2026-05-07 15:48 | 53.69500 | 43.04735 | 38930 ft | 460 kts | 85° |
| 2026-05-07 15:49 | 53.70010 | 43.15535 | 38931 ft | 460 kts | 85° |
| 2026-05-07 15:49 | 53.70513 | 43.26304 | 38932 ft | 460 kts | 85° |
| 2026-05-07 15:50 | 53.71004 | 43.37082 | 38933 ft | 461 kts | 85° |
| 2026-05-07 15:50 | 53.71473 | 43.47880 | 38934 ft | 461 kts | 85° |
| 2026-05-07 15:51 | 53.71932 | 43.58670 | 38936 ft | 461 kts | 85° |
| 2026-05-07 15:51 | 53.72388 | 43.69391 | 38943 ft | 461 kts | 85° |
| 2026-05-07 15:52 | 53.72837 | 43.80160 | 38945 ft | 461 kts | 86° |
| 2026-05-07 15:52 | 53.73280 | 43.91008 | 38948 ft | 461 kts | 86° |
| 2026-05-07 15:53 | 53.73708 | 44.01805 | 38950 ft | 461 kts | 86° |
| 2026-05-07 15:53 | 53.74118 | 44.12552 | 38951 ft | 461 kts | 86° |
| 2026-05-07 15:54 | 53.74521 | 44.23353 | 38951 ft | 461 kts | 86° |
| 2026-05-07 15:54 | 53.74917 | 44.34178 | 38957 ft | 461 kts | 86° |
| 2026-05-07 15:55 | 53.75297 | 44.44983 | 38960 ft | 461 kts | 86° |
| 2026-05-07 15:55 | 53.75557 | 44.55821 | 38962 ft | 461 kts | 88° |
| 2026-05-07 15:56 | 53.75716 | 44.66646 | 38963 ft | 461 kts | 88° |
| 2026-05-07 15:56 | 53.75877 | 44.77486 | 38964 ft | 461 kts | 88° |
| 2026-05-07 15:57 | 53.76063 | 44.88320 | 38969 ft | 461 kts | 88° |
| 2026-05-07 15:57 | 53.76242 | 44.99152 | 38970 ft | 461 kts | 88° |
| 2026-05-07 15:58 | 53.76407 | 45.09928 | 38973 ft | 461 kts | 88° |
| 2026-05-07 15:58 | 53.76559 | 45.20758 | 38978 ft | 461 kts | 88° |
| 2026-05-07 15:59 | 53.76723 | 45.31579 | 38980 ft | 461 kts | 88° |
| 2026-05-07 15:59 | 53.76888 | 45.42407 | 38977 ft | 460 kts | 88° |
| 2026-05-07 16:00 | 53.77032 | 45.53238 | 38977 ft | 460 kts | 89° |
| 2026-05-07 16:00 | 53.77161 | 45.64066 | 38973 ft | 460 kts | 89° |
| 2026-05-07 16:01 | 53.77284 | 45.74894 | 38974 ft | 460 kts | 89° |
| 2026-05-07 16:01 | 53.77394 | 45.85632 | 38980 ft | 460 kts | 89° |
| 2026-05-07 16:02 | 53.77497 | 45.96464 | 38979 ft | 460 kts | 89° |
| 2026-05-07 16:02 | 53.77591 | 46.07278 | 38975 ft | 460 kts | 89° |
| 2026-05-07 16:03 | 53.77675 | 46.18048 | 38975 ft | 460 kts | 89° |
| 2026-05-07 16:03 | 53.77753 | 46.28862 | 38974 ft | 460 kts | 89° |
| 2026-05-07 16:04 | 53.77819 | 46.39671 | 38969 ft | 460 kts | 89° |
| 2026-05-07 16:04 | 53.77873 | 46.50464 | 38974 ft | 460 kts | 89° |
| 2026-05-07 16:05 | 53.77921 | 46.61307 | 38972 ft | 460 kts | 89° |
| 2026-05-07 16:05 | 53.77954 | 46.72120 | 38969 ft | 460 kts | 89° |
| 2026-05-07 16:06 | 53.77979 | 46.82862 | 38970 ft | 460 kts | 90° |
| 2026-05-07 16:06 | 53.78006 | 46.93683 | 38969 ft | 460 kts | 90° |
| 2026-05-07 16:07 | 53.78012 | 47.04511 | 38970 ft | 460 kts | 90° |
| 2026-05-07 16:07 | 53.78003 | 47.15355 | 38970 ft | 460 kts | 90° |
| 2026-05-07 16:08 | 53.78425 | 47.26131 | 38970 ft | 460 kts | 83° |
| 2026-05-07 16:08 | 53.79189 | 47.36807 | 38971 ft | 460 kts | 83° |
| 2026-05-07 16:09 | 53.79945 | 47.47564 | 38971 ft | 460 kts | 83° |
| 2026-05-07 16:09 | 53.80676 | 47.58317 | 38973 ft | 460 kts | 83° |
| 2026-05-07 16:10 | 53.81400 | 47.69075 | 38976 ft | 460 kts | 83° |
| 2026-05-07 16:10 | 53.82112 | 47.79839 | 38974 ft | 460 kts | 83° |
| 2026-05-07 16:11 | 53.82635 | 47.90634 | 38976 ft | 460 kts | 92° |
| 2026-05-07 16:11 | 53.82062 | 48.01347 | 38970 ft | 460 kts | 96° |
| 2026-05-07 16:12 | 53.81408 | 48.12110 | 38970 ft | 460 kts | 96° |
| 2026-05-07 16:12 | 53.81082 | 48.17494 | 38840 ft | 461 kts | 96° |
| 2026-05-07 16:12 | 53.80752 | 48.22934 | 37918 ft | 466 kts | 96° |
| 2026-05-07 16:12 | 53.80419 | 48.28375 | 37257 ft | 462 kts | 96° |
| 2026-05-07 16:13 | 53.80088 | 48.33761 | 36516 ft | 460 kts | 96° |
| 2026-05-07 16:13 | 53.79753 | 48.39141 | 35699 ft | 461 kts | 95° |
| 2026-05-07 16:13 | 53.79413 | 48.44543 | 34794 ft | 463 kts | 95° |
| 2026-05-07 16:13 | 53.79067 | 48.49959 | 33946 ft | 463 kts | 95° |
| 2026-05-07 16:14 | 53.78717 | 48.55374 | 32835 ft | 465 kts | 95° |
| 2026-05-07 16:14 | 53.78363 | 48.60800 | 31785 ft | 466 kts | 95° |
| 2026-05-07 16:14 | 53.78005 | 48.66253 | 30748 ft | 466 kts | 95° |
| 2026-05-07 16:14 | 53.77648 | 48.71707 | 29489 ft | 469 kts | 95° |
| 2026-05-07 16:15 | 53.77285 | 48.77205 | 28345 ft | 468 kts | 95° |
| 2026-05-07 16:15 | 53.76925 | 48.82603 | 27745 ft | 457 kts | 95° |
| 2026-05-07 16:15 | 53.76462 | 48.87884 | 26991 ft | 452 kts | 101° |
| 2026-05-07 16:15 | 53.75726 | 48.93015 | 26268 ft | 446 kts | 103° |
| 2026-05-07 16:16 | 53.74999 | 48.98011 | 25561 ft | 441 kts | 103° |
| 2026-05-07 16:16 | 53.74268 | 49.03022 | 24870 ft | 436 kts | 103° |
| 2026-05-07 16:16 | 53.73542 | 49.07973 | 24174 ft | 432 kts | 103° |
| 2026-05-07 16:16 | 53.72820 | 49.12870 | 23492 ft | 429 kts | 103° |
| 2026-05-07 16:17 | 53.72101 | 49.17736 | 22757 ft | 424 kts | 103° |
| 2026-05-07 16:17 | 53.71391 | 49.22541 | 22141 ft | 418 kts | 103° |
| 2026-05-07 16:17 | 53.70692 | 49.27284 | 21536 ft | 413 kts | 103° |
| 2026-05-07 16:17 | 53.70001 | 49.31974 | 20966 ft | 408 kts | 103° |
| 2026-05-07 16:18 | 53.69315 | 49.36607 | 20421 ft | 404 kts | 103° |
| 2026-05-07 16:18 | 53.68774 | 49.41230 | 19882 ft | 398 kts | 95° |
| 2026-05-07 16:18 | 53.68692 | 49.45792 | 19367 ft | 393 kts | 85° |
| 2026-05-07 16:18 | 53.69036 | 49.50338 | 18833 ft | 389 kts | 79° |
| 2026-05-07 16:19 | 53.69477 | 49.54833 | 18290 ft | 387 kts | 79° |
| 2026-05-07 16:19 | 53.69904 | 49.59310 | 17717 ft | 384 kts | 79° |
| 2026-05-07 16:19 | 53.70319 | 49.63736 | 17169 ft | 380 kts | 80° |
| 2026-05-07 16:19 | 53.70727 | 49.68130 | 16627 ft | 377 kts | 81° |
| 2026-05-07 16:20 | 53.70763 | 49.72529 | 16074 ft | 376 kts | 97° |
| 2026-05-07 16:20 | 53.70014 | 49.76753 | 15509 ft | 377 kts | 114° |
| 2026-05-07 16:20 | 53.68555 | 49.80424 | 14935 ft | 378 kts | 131° |
| 2026-05-07 16:20 | 53.66504 | 49.83191 | 14355 ft | 379 kts | 149° |
| 2026-05-07 16:21 | 53.64076 | 49.84927 | 13771 ft | 379 kts | 159° |
| 2026-05-07 16:21 | 53.61626 | 49.86430 | 13124 ft | 378 kts | 159° |
| 2026-05-07 16:21 | 53.59135 | 49.87948 | 12517 ft | 375 kts | 159° |
| 2026-05-07 16:21 | 53.56706 | 49.89413 | 11906 ft | 373 kts | 159° |
| 2026-05-07 16:22 | 53.54271 | 49.90875 | 11285 ft | 371 kts | 159° |
| 2026-05-07 16:22 | 53.51850 | 49.92326 | 10675 ft | 368 kts | 159° |
| 2026-05-07 16:22 | 53.49479 | 49.93750 | 10509 ft | 353 kts | 159° |
| 2026-05-07 16:22 | 53.47222 | 49.95111 | 10379 ft | 337 kts | 159° |
| 2026-05-07 16:23 | 53.45059 | 49.96419 | 10259 ft | 323 kts | 159° |
| 2026-05-07 16:23 | 53.42983 | 49.97675 | 10137 ft | 311 kts | 158° |
| 2026-05-07 16:23 | 53.40981 | 49.98885 | 9947 ft | 302 kts | 158° |
| 2026-05-07 16:23 | 53.39017 | 50.00065 | 9857 ft | 298 kts | 158° |
| 2026-05-07 16:24 | 53.37041 | 50.01252 | 9304 ft | 305 kts | 158° |
| 2026-05-07 16:24 | 53.35069 | 50.02437 | 9016 ft | 298 kts | 158° |
| 2026-05-07 16:24 | 53.33129 | 50.03602 | 8686 ft | 293 kts | 158° |
| 2026-05-07 16:24 | 53.31864 | 50.04360 | 8456 ft | 291 kts | 158° |
| 2026-05-07 16:25 | 53.29355 | 50.05858 | 8095 ft | 282 kts | 158° |
| 2026-05-07 16:25 | 53.27634 | 50.07182 | 7904 ft | 262 kts | 140° |
| 2026-05-07 16:25 | 53.26516 | 50.09429 | 7442 ft | 248 kts | 110° |
| 2026-05-07 16:25 | 53.26194 | 50.12181 | 6877 ft | 240 kts | 83° |
| 2026-05-07 16:26 | 53.26424 | 50.14009 | 6485 ft | 237 kts | 66° |
| 2026-05-07 16:26 | 53.27127 | 50.16485 | 5862 ft | 237 kts | 62° |
| 2026-05-07 16:26 | 53.27851 | 50.18958 | 5253 ft | 236 kts | 63° |
| 2026-05-07 16:26 | 53.28565 | 50.21421 | 4671 ft | 235 kts | 63° |
| 2026-05-07 16:27 | 53.29263 | 50.23840 | 4105 ft | 234 kts | 63° |
| 2026-05-07 16:27 | 53.30017 | 50.26231 | 3549 ft | 231 kts | 52° |
| 2026-05-07 16:27 | 53.31262 | 50.27811 | 3182 ft | 221 kts | 20° |
| 2026-05-07 16:27 | 53.32706 | 50.28111 | 3126 ft | 203 kts | 353° |
| 2026-05-07 16:28 | 53.33984 | 50.27484 | 3113 ft | 177 kts | 342° |
| 2026-05-07 16:28 | 53.35089 | 50.26831 | 2984 ft | 162 kts | 342° |
| 2026-05-07 16:28 | 53.36102 | 50.26231 | 2830 ft | 148 kts | 342° |
| 2026-05-07 16:28 | 53.37046 | 50.25672 | 2667 ft | 141 kts | 342° |
| 2026-05-07 16:29 | 53.37964 | 50.25128 | 2506 ft | 139 kts | 342° |
| 2026-05-07 16:29 | 53.38871 | 50.24590 | 2349 ft | 138 kts | 342° |
| 2026-05-07 16:29 | 53.39773 | 50.24054 | 2192 ft | 137 kts | 342° |
| 2026-05-07 16:29 | 53.40670 | 50.23521 | 2032 ft | 137 kts | 342° |
| 2026-05-07 16:30 | 53.41566 | 50.22988 | 1867 ft | 136 kts | 342° |
| 2026-05-07 16:30 | 53.42458 | 50.22457 | 1708 ft | 136 kts | 342° |
| 2026-05-07 16:30 | 53.43350 | 50.21926 | 1550 ft | 135 kts | 343° |
| 2026-05-07 16:30 | 53.44235 | 50.21399 | 1381 ft | 135 kts | 342° |
| 2026-05-07 16:31 | 53.45116 | 50.20874 | 1204 ft | 134 kts | 341° |
| 2026-05-07 16:31 | 53.45976 | 50.20344 | 1055 ft | 133 kts | 340° |
| 2026-05-07 16:31 | 53.46839 | 50.19797 | 893 ft | 132 kts | 342° |
| 2026-05-07 16:31 | 53.47709 | 50.19322 | 742 ft | 131 kts | 342° |
| 2026-05-07 16:32 | 53.48577 | 50.18815 | 621 ft | 133 kts | 340° |
| 2026-05-07 16:32 | 53.49441 | 50.18290 | 469 ft | 132 kts | 341° |
| 2026-05-07 16:32 | 53.50218 | 50.17830 | 443 ft | 96 kts | 340° |
| 2026-05-07 16:32 | 53.50687 | 50.17550 | 442 ft | 47 kts | 340° |
| 2026-05-07 16:33 | 53.50936 | 50.17397 | 435 ft | 36 kts | 340° |
| 2026-05-07 16:33 | 53.51164 | 50.17261 | 446 ft | 33 kts | 341° |
| 2026-05-07 16:33 | 53.51357 | 50.17143 | 450 ft | 21 kts | 341° |
| 2026-05-07 16:33 | 53.51437 | 50.17055 | 449 ft | 13 kts | 283° |
| 2026-05-07 16:34 | 53.51404 | 50.16920 | 447 ft | 11 kts | 241° |
| 2026-05-07 16:34 | 53.51383 | 50.16853 | 447 ft | 0 kts | 242° |